Time;durP1;ratioP1;P1;durP2;ratioP2;P2;SDS_P1;SDS_P2;PMS_P1;PMS_P2;Temp;Humidity;BMP_temperature;BMP_pressure;BME280_temperature;BME280_humidity;BME280_pressure;Samples;Min_cycle;Max_cycle;Signal;HPM_P1;HPM_P2
2023/01/20 00:01:59;;;;;;;2.70;1.33;;;-0.10;99.90;;;;;;4190269;28;20045;-82
2023/01/20 00:04:01;;;;;;;3.28;1.30;;;1.30;99.90;;;;;;4205931;28;20100;-82
2023/01/20 00:06:03;;;;;;;3.63;1.80;;;-0.10;99.90;;;;;;4206398;28;20041;-82
2023/01/20 00:08:04;;;;;;;2.63;1.25;;;-1.10;99.90;;;;;;4207097;28;20052;-82
2023/01/20 00:10:08;;;;;;;3.08;1.35;;;-0.10;99.90;;;;;;4207343;28;20081;-82
2023/01/20 00:12:10;;;;;;;5.32;1.08;;;0.00;99.90;;;;;;4190599;28;20060;-81
2023/01/20 00:14:11;;;;;;;4.00;1.55;;;-0.60;99.90;;;;;;4191437;28;20049;-81
2023/01/20 00:16:13;;;;;;;3.05;1.45;;;1.90;99.90;;;;;;4191239;28;20045;-81
2023/01/20 00:18:21;;;;;;;3.20;1.35;;;-1.10;99.90;;;;;;4190215;28;20052;-81
2023/01/20 00:20:23;;;;;;;1.63;1.30;;;-1.60;99.90;;;;;;4209085;28;20095;-82
2023/01/20 00:22:24;;;;;;;4.00;1.45;;;-0.10;99.90;;;;;;4207645;28;20064;-81
2023/01/20 00:24:26;;;;;;;3.53;1.52;;;0.40;99.90;;;;;;4190428;28;20041;-82
2023/01/20 00:26:27;;;;;;;5.32;1.33;;;-0.10;99.90;;;;;;4208254;28;20056;-82
2023/01/20 00:28:28;;;;;;;3.22;1.35;;;0.10;99.90;;;;;;4207638;28;20044;-82
2023/01/20 00:30:30;;;;;;;2.30;1.15;;;-0.10;99.90;;;;;;4207150;28;20136;-81
2023/01/20 00:32:37;;;;;;;3.22;1.50;;;-0.10;99.90;;;;;;4207850;28;20068;-80
2023/01/20 00:35:05;;;;;;;5.68;1.50;;;0.10;99.90;;;;;;4206708;28;20041;-81
2023/01/20 00:37:06;;;;;;;3.65;1.92;;;-0.20;99.90;;;;;;4206354;28;20049;-81
2023/01/20 00:39:08;;;;;;;2.63;1.42;;;-0.20;99.90;;;;;;4189833;28;20080;-81
2023/01/20 00:41:17;;;;;;;3.03;1.63;;;2.00;99.90;;;;;;4189603;28;20099;-81
2023/01/20 00:43:18;;;;;;;1.75;1.13;;;;;;;;;;4208127;28;20056;-81
2023/01/20 00:45:25;;;;;;;1.98;1.30;;;-0.20;99.90;;;;;;4207156;28;20044;-81
2023/01/20 00:47:27;;;;;;;4.20;1.63;;;0.10;99.90;;;;;;4208460;28;20044;-81
2023/01/20 00:49:27;;;;;;;5.03;1.65;;;2.40;99.90;;;;;;4190082;28;20049;-81
2023/01/20 00:51:28;;;;;;;2.92;1.63;;;-0.30;99.90;;;;;;4190296;28;20454;-83
2023/01/20 00:53:37;;;;;;;1.92;1.67;;;1.50;99.90;;;;;;4207200;28;20083;-81
2023/01/20 00:55:38;;;;;;;5.57;1.58;;;-0.10;99.90;;;;;;4206475;28;20101;-81
2023/01/20 00:57:41;;;;;;;3.25;2.03;;;-0.10;99.90;;;;;;4189915;28;20063;-80
2023/01/20 00:59:43;;;;;;;4.85;2.20;;;-0.40;99.90;;;;;;4207533;28;20463;-81
2023/01/20 01:01:44;;;;;;;4.90;1.88;;;-0.30;99.90;;;;;;4189429;28;20049;-81
2023/01/20 01:03:47;;;;;;;3.80;2.20;;;-0.30;99.90;;;;;;4206676;28;20374;-81
2023/01/20 01:05:49;;;;;;;4.63;2.45;;;-0.40;99.90;;;;;;4189773;28;20206;-81
2023/01/20 01:07:50;;;;;;;6.43;2.58;;;-0.20;99.90;;;;;;4206774;28;20074;-81
2023/01/20 01:09:53;;;;;;;4.53;2.60;;;-0.30;99.90;;;;;;4190223;28;20485;-81
2023/01/20 01:11:55;;;;;;;5.40;3.13;;;-0.10;99.90;;;;;;4190755;28;20045;-81
2023/01/20 01:13:57;;;;;;;8.57;3.45;;;-0.40;99.90;;;;;;4190039;28;20111;-80
2023/01/20 01:15:59;;;;;;;8.48;4.25;;;-0.40;99.90;;;;;;4206345;28;20060;-80
2023/01/20 01:18:08;;;;;;;10.38;3.85;;;-0.30;99.90;;;;;;4207094;28;20055;-81
2023/01/20 01:20:13;;;;;;;17.80;4.75;;;-0.30;99.90;;;;;;4207321;28;20044;-81
2023/01/20 01:22:23;;;;;;;12.68;5.28;;;-0.20;99.90;;;;;;4208561;28;20105;-82
2023/01/20 01:24:24;;;;;;;13.55;5.13;;;-0.20;99.90;;;;;;4206711;28;20076;-82
2023/01/20 01:26:25;;;;;;;26.60;6.10;;;0.20;99.90;;;;;;4207672;28;20044;-82
2023/01/20 01:28:27;;;;;;;29.02;5.72;;;-0.30;99.90;;;;;;4207520;28;20037;-82
2023/01/20 01:30:29;;;;;;;43.72;6.45;;;0.90;99.90;;;;;;4208473;28;20101;-82
2023/01/20 01:32:31;;;;;;;17.20;5.75;;;1.70;99.90;;;;;;4207406;28;20044;-82
2023/01/20 01:34:33;;;;;;;24.42;6.47;;;-0.30;99.90;;;;;;4191224;28;20108;-82
2023/01/20 01:36:39;;;;;;;31.63;6.00;;;1.40;99.90;;;;;;4207502;28;20059;-82
2023/01/20 01:38:46;;;;;;;14.75;5.78;;;-0.20;99.90;;;;;;4190733;28;20078;-82
2023/01/20 01:40:51;;;;;;;15.57;5.55;;;-0.30;99.90;;;;;;4191411;28;20057;-80
2023/01/20 01:42:54;;;;;;;21.17;5.53;;;-0.40;99.90;;;;;;4209743;28;20044;-81
2023/01/20 01:45:13;;;;;;;18.23;6.43;;;-0.40;99.90;;;;;;4193125;28;20083;-81
2023/01/20 01:47:16;;;;;;;13.68;5.13;;;-0.30;99.90;;;;;;4210601;28;20040;-81
2023/01/20 01:49:27;;;;;;;13.57;5.97;;;1.10;99.90;;;;;;4194189;28;20071;-81
2023/01/20 01:51:39;;;;;;;18.13;6.07;;;-0.20;99.90;;;;;;4193240;28;20056;-81
2023/01/20 01:53:46;;;;;;;13.63;6.00;;;-0.30;99.90;;;;;;4212128;28;20052;-81
2023/01/20 01:55:59;;;;;;;13.57;5.30;;;1.50;99.90;;;;;;4209844;28;20048;-81
2023/01/20 01:58:03;;;;;;;13.93;5.70;;;-0.20;99.90;;;;;;4193895;28;20091;-80
2023/01/20 02:00:06;;;;;;;15.45;5.50;;;-0.10;99.90;;;;;;4209601;28;20107;-81
2023/01/20 02:02:08;;;;;;;12.38;5.65;;;-0.20;99.90;;;;;;4210994;28;20084;-81
2023/01/20 02:04:12;;;;;;;12.25;5.57;;;-0.10;99.90;;;;;;4193997;28;20087;-81
2023/01/20 02:06:15;;;;;;;13.52;5.43;;;0.30;99.90;;;;;;4210536;28;20429;-81
2023/01/20 02:08:19;;;;;;;14.63;5.90;;;0.40;99.90;;;;;;4193704;28;20102;-82
2023/01/20 02:10:27;;;;;;;18.88;6.70;;;-0.30;99.90;;;;;;4193036;28;20060;-82
2023/01/20 02:12:29;;;;;;;15.88;5.55;;;-0.40;99.90;;;;;;4209944;28;20547;-82
2023/01/20 02:14:40;;;;;;;11.40;4.80;;;-0.30;99.90;;;;;;4209929;28;20048;-81
2023/01/20 02:17:36;;;;;;;10.43;5.00;;;-0.20;99.90;;;;;;4211170;28;20064;-81
2023/01/20 02:20:01;;;;;;;12.57;4.60;;;-0.50;99.90;;;;;;4128026;28;20134;-81
2023/01/20 02:22:25;;;;;;;11.55;5.22;;;-0.30;99.90;;;;;;4182722;28;20493;-81
2023/01/20 02:25:12;;;;;;;12.10;5.05;;;-0.20;99.90;;;;;;4210854;28;20037;-81
2023/01/20 02:28:00;;;;;;;9.73;4.32;;;-0.20;99.90;;;;;;4210448;28;20059;-81
2023/01/20 02:30:21;;;;;;;8.77;4.07;;;-0.20;99.90;;;;;;4210280;28;20044;-81
2023/01/20 02:32:50;;;;;;;11.55;4.70;;;-1.40;99.90;;;;;;4193954;28;20052;-80
2023/01/20 02:35:21;;;;;;;10.07;4.97;;;-0.30;99.90;;;;;;4193746;28;20041;-80
2023/01/20 02:37:29;;;;;;;10.10;4.93;;;0.90;99.90;;;;;;4180725;28;20116;-80
2023/01/20 02:40:08;;;;;;;11.95;5.10;;;-1.90;99.90;;;;;;4210143;28;20071;-81
2023/01/20 02:42:43;;;;;;;8.57;4.40;;;-0.60;99.90;;;;;;4193002;28;20131;-81
2023/01/20 02:44:52;;;;;;;10.40;4.80;;;-0.30;99.90;;;;;;4192996;28;20053;-81
2023/01/20 02:47:13;;;;;;;10.40;4.80;;;-0.60;99.90;;;;;;4193970;28;20048;-81
2023/01/20 02:49:25;;;;;;;10.60;4.75;;;-0.40;99.90;;;;;;4211890;28;20041;-81
2023/01/20 02:51:37;;;;;;;9.75;4.40;;;0.30;99.90;;;;;;4211666;28;20068;-81
2023/01/20 02:53:46;;;;;;;10.45;4.90;;;1.20;99.90;;;;;;4209991;28;20071;-81
2023/01/20 02:55:50;;;;;;;11.00;4.95;;;-0.50;99.90;;;;;;4210947;28;20048;-81
2023/01/20 02:57:59;;;;;;;14.20;5.88;;;-0.30;99.90;;;;;;4211609;28;20056;-80
2023/01/20 03:00:14;;;;;;;9.48;4.57;;;1.20;99.90;;;;;;4197660;28;20048;-81
2023/01/20 03:02:20;;;;;;;15.50;6.00;;;-1.30;99.90;;;;;;4193609;28;20057;-81
2023/01/20 03:04:42;;;;;;;11.85;5.43;;;-0.50;99.90;;;;;;4175839;28;20056;-81
2023/01/20 03:06:54;;;;;;;16.67;6.10;;;-1.50;99.90;;;;;;4193666;28;20041;-82
2023/01/20 03:08:59;;;;;;;12.55;6.03;;;1.60;99.90;;;;;;4193496;28;20082;-82
2023/01/20 03:11:10;;;;;;;11.43;5.53;;;-0.30;99.90;;;;;;4192742;28;20068;-82
2023/01/20 03:13:28;;;;;;;16.10;6.65;;;-2.00;99.90;;;;;;4193448;28;20048;-82
2023/01/20 03:15:43;;;;;;;14.52;6.40;;;-0.30;99.90;;;;;;4194184;28;20080;-82
2023/01/20 03:17:46;;;;;;;17.25;6.93;;;0.80;99.90;;;;;;4175719;28;20107;-81
2023/01/20 03:19:48;;;;;;;13.15;5.80;;;-2.10;99.90;;;;;;4193538;28;20041;-81
2023/01/20 03:21:51;;;;;;;15.95;7.18;;;-1.10;99.90;;;;;;4193812;28;20408;-81
2023/01/20 03:23:58;;;;;;;15.10;6.32;;;-0.40;99.90;;;;;;4176276;28;20064;-81
2023/01/20 03:26:05;;;;;;;13.68;6.68;;;0.30;99.90;;;;;;4192794;28;20105;-81
2023/01/20 03:28:08;;;;;;;14.27;6.43;;;-0.20;99.90;;;;;;4193046;28;20049;-81
2023/01/20 03:30:16;;;;;;;16.10;6.65;;;-0.40;99.90;;;;;;4180080;28;20044;-81
2023/01/20 03:32:25;;;;;;;17.00;7.22;;;-0.40;99.90;;;;;;4208564;28;20050;-81
2023/01/20 03:34:30;;;;;;;15.00;7.10;;;-0.20;99.90;;;;;;4209356;28;20048;-81
2023/01/20 03:36:33;;;;;;;19.05;7.13;;;-0.20;99.90;;;;;;4209403;28;20540;-81
2023/01/20 03:38:35;;;;;;;15.80;7.00;;;-0.30;99.90;;;;;;4191939;28;20048;-82
2023/01/20 03:40:52;;;;;;;14.73;6.75;;;-0.20;99.90;;;;;;4208083;28;20040;-81
2023/01/20 03:43:05;;;;;;;17.73;6.95;;;-0.30;99.90;;;;;;4209032;28;20044;-81
2023/01/20 03:45:18;;;;;;;14.07;6.85;;;-0.10;99.90;;;;;;4191847;28;20053;-81
2023/01/20 03:47:38;;;;;;;15.32;7.07;;;-0.10;99.90;;;;;;4208075;28;20105;-81
2023/01/20 03:50:05;;;;;;;16.70;7.80;;;-0.10;99.90;;;;;;4190962;28;20053;-80
2023/01/20 03:52:44;;;;;;;17.42;7.72;;;1.80;99.90;;;;;;4206694;28;20056;-80
2023/01/20 03:54:55;;;;;;;22.60;8.68;;;-1.70;99.90;;;;;;4197150;28;20057;-82
2023/01/20 03:57:15;;;;;;;19.60;8.23;;;-0.10;99.90;;;;;;4192029;28;20108;-81
2023/01/20 03:59:19;;;;;;;18.92;7.80;;;0.00;99.90;;;;;;4208311;28;20081;-81
2023/01/20 04:01:31;;;;;;;20.75;7.53;;;1.10;99.90;;;;;;4208578;28;20044;-81
2023/01/20 04:03:37;;;;;;;17.77;7.80;;;0.00;99.90;;;;;;4208983;28;20105;-81
2023/01/20 04:05:42;;;;;;;19.80;8.75;;;0.10;99.90;;;;;;4207259;28;20056;-81
2023/01/20 04:07:45;;;;;;;22.20;8.52;;;0.10;99.90;;;;;;4209173;28;20045;-81
2023/01/20 04:09:54;;;;;;;19.58;8.52;;;-0.10;99.90;;;;;;4190593;28;20109;-81
2023/01/20 04:11:57;;;;;;;;;;;1.20;99.90;;;;;;4191502;28;20087;-81
2023/01/20 04:14:07;;;;;;;21.23;7.57;;;1.10;99.90;;;;;;4207686;28;19924;-81
2023/01/20 04:16:14;;;;;;;20.23;8.25;;;1.40;99.90;;;;;;4207964;28;20104;-81
2023/01/20 04:18:23;;;;;;;21.90;9.77;;;0.10;99.90;;;;;;4206529;28;20059;-81
2023/01/20 04:20:26;;;;;;;19.98;7.50;;;0.00;99.90;;;;;;4190716;28;20049;-81
2023/01/20 04:22:34;;;;;;;20.55;8.57;;;0.10;99.90;;;;;;4206767;28;20083;-81
2023/01/20 04:25:07;;;;;;;21.85;9.07;;;0.70;99.90;;;;;;4207090;28;20075;-81
2023/01/20 04:27:09;;;;;;;22.10;9.18;;;0.10;99.90;;;;;;4202973;28;20052;-81
2023/01/20 04:29:12;;;;;;;27.58;9.27;;;-1.00;99.90;;;;;;4190530;28;20080;-81
2023/01/20 04:31:13;;;;;;;23.02;8.77;;;0.00;99.90;;;;;;4208789;28;20055;-81
2023/01/20 04:33:17;;;;;;;21.05;8.27;;;0.00;99.90;;;;;;4206986;28;20484;-81
2023/01/20 04:35:19;;;;;;;23.13;9.65;;;0.00;99.90;;;;;;4207430;28;20444;-81
2023/01/20 04:37:26;;;;;;;21.75;9.60;;;0.90;99.90;;;;;;4208766;28;20044;-81
2023/01/20 04:39:29;;;;;;;17.42;7.22;;;1.20;99.90;;;;;;4207664;28;20109;-81
2023/01/20 04:41:33;;;;;;;22.02;8.75;;;0.00;99.90;;;;;;4207941;28;20044;-81
2023/01/20 04:43:45;;;;;;;22.15;8.82;;;1.60;99.90;;;;;;4207788;28;20840;-81
2023/01/20 04:45:56;;;;;;;21.63;8.93;;;0.00;99.90;;;;;;4207523;28;20080;-81
2023/01/20 04:47:58;;;;;;;21.27;8.82;;;0.50;99.90;;;;;;4207552;28;20056;-80
2023/01/20 04:50:00;;;;;;;23.92;9.23;;;0.80;99.90;;;;;;4190224;28;20107;-81
2023/01/20 04:52:07;;;;;;;20.70;8.50;;;0.00;99.90;;;;;;4207513;28;20066;-80
2023/01/20 04:54:10;;;;;;;23.10;8.55;;;0.00;99.90;;;;;;4209338;28;20056;-81
2023/01/20 04:56:14;;;;;;;18.17;7.40;;;-0.20;99.90;;;;;;4190291;28;20057;-81
2023/01/20 04:58:16;;;;;;;25.73;9.50;;;-0.60;99.90;;;;;;4207919;28;20048;-80
2023/01/20 05:00:29;;;;;;;23.52;8.82;;;-0.10;99.90;;;;;;4190380;28;20041;-81
2023/01/20 05:02:31;;;;;;;22.48;9.52;;;1.50;99.90;;;;;;4174226;28;20041;-81
2023/01/20 05:04:33;;;;;;;24.17;8.65;;;-0.10;99.90;;;;;;4208649;28;20040;-81
2023/01/20 05:06:34;;;;;;;26.02;8.57;;;-0.10;99.90;;;;;;4208624;28;20036;-81
2023/01/20 05:08:38;;;;;;;17.73;7.32;;;0.60;99.90;;;;;;4206945;28;20102;-81
2023/01/20 05:10:42;;;;;;;22.85;8.73;;;1.20;99.90;;;;;;4207400;28;20081;-81
2023/01/20 05:12:45;;;;;;;22.30;8.60;;;-0.10;99.90;;;;;;4190667;28;20056;-81
2023/01/20 05:14:48;;;;;;;20.30;7.80;;;1.20;99.90;;;;;;4191448;28;20053;-81
2023/01/20 05:16:51;;;;;;;20.98;8.57;;;-0.20;99.90;;;;;;4190793;28;20057;-81
2023/01/20 05:18:52;;;;;;;20.90;8.82;;;0.00;99.90;;;;;;4193230;28;20112;-81
2023/01/20 05:20:54;;;;;;;23.45;9.70;;;-0.10;99.90;;;;;;4210875;28;20056;-80
2023/01/20 05:22:57;;;;;;;21.23;9.52;;;-0.20;99.90;;;;;;4211573;28;20041;-80
2023/01/20 05:24:59;;;;;;;25.67;8.57;;;0.10;99.90;;;;;;4211276;28;20044;-81
2023/01/20 05:27:02;;;;;;;15.20;7.70;;;-1.70;99.90;;;;;;4211715;28;20058;-79
2023/01/20 05:29:04;;;;;;;17.83;7.20;;;-0.20;99.90;;;;;;4211691;28;20046;-81
2023/01/20 05:31:07;;;;;;;18.15;7.97;;;0.80;99.90;;;;;;4210650;28;20485;-81
2023/01/20 05:33:08;;;;;;;21.42;7.60;;;-0.10;99.90;;;;;;4211975;28;20056;-80
2023/01/20 05:35:15;;;;;;;20.30;7.57;;;-0.20;99.90;;;;;;4211289;28;20120;-81
2023/01/20 05:37:17;;;;;;;15.20;5.22;;;-0.40;99.90;;;;;;4194189;28;20055;-80
2023/01/20 05:39:20;;;;;;;18.70;6.35;;;-0.20;99.90;;;;;;4211068;28;20052;-81
2023/01/20 05:41:21;;;;;;;25.45;8.43;;;-0.10;99.90;;;;;;4211654;28;20059;-81
2023/01/20 05:43:23;;;;;;;14.25;6.70;;;-0.20;99.90;;;;;;4210551;28;20040;-81
2023/01/20 05:45:24;;;;;;;13.93;5.20;;;-0.20;99.90;;;;;;4210360;28;20044;-82
2023/01/20 05:47:26;;;;;;;18.63;7.05;;;-0.40;99.90;;;;;;4194135;28;20037;-81
2023/01/20 05:49:30;;;;;;;18.27;6.80;;;-0.20;99.90;;;;;;4211313;28;20041;-81
2023/01/20 05:51:32;;;;;;;15.70;6.03;;;-0.30;99.90;;;;;;4210802;28;20044;-81
2023/01/20 05:53:34;;;;;;;19.08;7.35;;;-0.20;99.90;;;;;;4209990;28;20044;-81
2023/01/20 05:55:35;;;;;;;17.90;7.25;;;-0.30;99.90;;;;;;4210052;28;20591;-81
2023/01/20 05:57:37;;;;;;;18.52;6.97;;;1.20;99.90;;;;;;4195179;28;20053;-80
2023/01/20 05:59:41;;;;;;;21.85;7.78;;;-0.40;99.90;;;;;;4201150;28;20044;-82
2023/01/20 06:01:43;;;;;;;21.70;8.80;;;1.40;99.90;;;;;;4176929;28;20053;-81
2023/01/20 06:03:47;;;;;;;20.67;8.38;;;1.30;99.90;;;;;;4194638;28;20068;-81
2023/01/20 06:05:49;;;;;;;14.88;5.93;;;-0.40;99.90;;;;;;4176953;28;20124;-81
2023/01/20 06:07:55;;;;;;;18.55;7.78;;;-0.30;99.90;;;;;;4193791;28;20542;-81
2023/01/20 06:09:58;;;;;;;15.38;7.00;;;-0.40;99.90;;;;;;4176624;28;20045;-81
2023/01/20 06:12:00;;;;;;;21.80;8.00;;;-0.30;99.90;;;;;;4194232;28;20041;-81
2023/01/20 06:14:03;;;;;;;19.33;8.35;;;-0.30;99.90;;;;;;4176834;28;20049;-81
2023/01/20 06:16:05;;;;;;;21.85;7.45;;;-0.30;99.90;;;;;;4177528;28;20049;-81
2023/01/20 06:18:11;;;;;;;23.13;7.00;;;-1.00;99.90;;;;;;4175736;28;20061;-81
2023/01/20 06:20:14;;;;;;;19.85;8.02;;;0.90;99.90;;;;;;4194547;28;20048;-80
2023/01/20 06:22:19;;;;;;;18.55;7.55;;;-0.30;99.90;;;;;;4192848;28;20053;-81
2023/01/20 06:24:21;;;;;;;21.48;8.95;;;1.80;99.90;;;;;;4193831;28;20114;-81
2023/01/20 06:26:23;;;;;;;23.75;8.75;;;1.40;99.90;;;;;;4176471;28;20083;-81
2023/01/20 06:28:25;;;;;;;21.70;9.23;;;0.90;99.90;;;;;;4193921;28;20037;-81
2023/01/20 06:30:27;;;;;;;23.42;9.80;;;0.70;99.90;;;;;;4193262;28;20045;-81
2023/01/20 06:32:28;;;;;;;25.25;10.55;;;-0.40;99.90;;;;;;4194177;28;20048;-81
2023/01/20 06:34:30;;;;;;;28.02;8.50;;;1.50;99.90;;;;;;4176586;28;20137;-81
2023/01/20 06:36:31;;;;;;;24.15;8.23;;;-0.20;99.90;;;;;;4194073;28;20124;-81
2023/01/20 06:38:34;;;;;;;24.08;9.18;;;-1.10;99.90;;;;;;4194052;28;20040;-81
2023/01/20 06:40:42;;;;;;;29.45;9.20;;;-0.30;99.90;;;;;;4194256;28;20045;-81
2023/01/20 06:42:44;;;;;;;27.02;10.98;;;-0.20;99.90;;;;;;4175614;28;20049;-80
2023/01/20 06:44:45;;;;;;;23.75;8.70;;;0.60;99.90;;;;;;4194120;28;20498;-80
2023/01/20 06:46:56;;;;;;;27.60;8.45;;;-0.20;99.90;;;;;;4175758;28;20084;-82
2023/01/20 06:49:05;;;;;;;22.15;8.55;;;0.90;99.90;;;;;;4176713;28;20045;-81
2023/01/20 06:51:15;;;;;;;24.90;9.38;;;0.30;99.90;;;;;;4192868;28;20045;-81
2023/01/20 06:53:24;;;;;;;25.52;8.77;;;-0.20;99.90;;;;;;4194471;28;20045;-81
2023/01/20 06:55:25;;;;;;;24.35;7.18;;;-0.10;99.90;;;;;;4192818;28;20084;-81
2023/01/20 06:57:27;;;;;;;25.45;8.98;;;-0.20;99.90;;;;;;4202840;28;20143;-81
2023/01/20 06:59:28;;;;;;;21.55;9.50;;;-0.10;99.90;;;;;;4202527;28;20094;-81
2023/01/20 07:01:30;;;;;;;23.73;9.07;;;-0.30;99.90;;;;;;4204727;28;20045;-81
2023/01/20 07:03:32;;;;;;;27.25;9.45;;;1.40;99.90;;;;;;4193394;28;20383;-81
2023/01/20 07:05:34;;;;;;;24.63;8.68;;;0.00;99.90;;;;;;4192508;28;20068;-81
2023/01/20 07:07:37;;;;;;;22.08;9.25;;;-0.20;99.90;;;;;;4193588;28;20048;-81
2023/01/20 07:09:38;;;;;;;23.80;9.98;;;-0.30;99.90;;;;;;4194828;28;20052;-81
2023/01/20 07:11:44;;;;;;;21.88;8.85;;;-0.20;99.90;;;;;;4192352;28;20060;-81
2023/01/20 07:13:47;;;;;;;23.60;9.02;;;0.00;99.90;;;;;;4198358;28;20044;-81
2023/01/20 07:15:48;;;;;;;23.45;10.30;;;-0.50;99.90;;;;;;4209618;28;20044;-81
2023/01/20 07:17:57;;;;;;;22.38;8.38;;;0.80;99.90;;;;;;4208534;28;20045;-81
2023/01/20 07:19:59;;;;;;;25.33;9.23;;;-0.30;99.90;;;;;;4209739;28;20109;-81
2023/01/20 07:22:01;;;;;;;27.25;10.10;;;1.50;99.90;;;;;;4207411;28;20048;-81
2023/01/20 07:24:03;;;;;;;23.77;9.98;;;-0.20;99.90;;;;;;4208076;28;20094;-81
2023/01/20 07:26:12;;;;;;;26.40;9.80;;;-0.90;99.90;;;;;;4208320;28;20051;-81
2023/01/20 07:28:14;;;;;;;16.50;7.32;;;-0.20;99.90;;;;;;4208802;28;20040;-81
2023/01/20 07:30:16;;;;;;;19.08;7.32;;;-0.10;99.90;;;;;;4207785;28;20067;-81
2023/01/20 07:32:21;;;;;;;23.00;8.27;;;0.00;99.90;;;;;;4209532;28;20040;-81
2023/01/20 07:34:23;;;;;;;23.33;9.45;;;-0.20;99.90;;;;;;4209576;28;20063;-81
2023/01/20 07:36:24;;;;;;;24.55;10.10;;;-0.70;99.90;;;;;;4191554;28;20276;-81
2023/01/20 07:38:27;;;;;;;22.90;9.07;;;-0.30;99.90;;;;;;4207631;28;20056;-81
2023/01/20 07:40:27;;;;;;;25.73;9.63;;;-0.20;99.90;;;;;;4207594;28;20575;-82
2023/01/20 07:42:30;;;;;;;27.05;11.00;;;-0.10;99.90;;;;;;4191138;28;20045;-81
2023/01/20 07:44:39;;;;;;;24.73;9.30;;;1.70;99.90;;;;;;4207322;28;20052;-81
2023/01/20 07:46:43;;;;;;;24.25;9.45;;;1.90;99.90;;;;;;4190875;28;20480;-81
2023/01/20 07:48:46;;;;;;;27.05;10.43;;;1.90;99.90;;;;;;4207380;28;20451;-81
2023/01/20 07:50:47;;;;;;;24.08;9.98;;;0.20;99.90;;;;;;4199721;28;20041;-81
2023/01/20 07:52:47;;;;;;;29.20;10.52;;;-0.20;99.90;;;;;;4191256;28;20051;-81
2023/01/20 07:54:48;;;;;;;29.17;10.30;;;-0.10;99.90;;;;;;4191775;28;20072;-81
2023/01/20 07:56:50;;;;;;;24.20;9.13;;;0.30;99.90;;;;;;4192708;28;20485;-81
2023/01/20 07:58:52;;;;;;;33.00;10.27;;;-0.20;99.90;;;;;;4192471;28;20079;-81
2023/01/20 08:00:54;;;;;;;28.77;10.57;;;-0.20;99.90;;;;;;4191909;28;20420;-80
2023/01/20 08:02:55;;;;;;;26.42;10.40;;;1.10;99.90;;;;;;4190299;28;20041;-82
2023/01/20 08:04:57;;;;;;;29.73;10.40;;;-0.10;99.90;;;;;;4191962;28;20048;-82
2023/01/20 08:07:02;;;;;;;27.27;10.93;;;-1.20;99.90;;;;;;4191396;28;20128;-82
2023/01/20 08:09:03;;;;;;;26.90;9.80;;;0.10;99.90;;;;;;4191725;28;20060;-82
2023/01/20 08:11:06;;;;;;;28.70;10.77;;;-0.10;99.90;;;;;;4175204;28;20046;-82
2023/01/20 08:13:08;;;;;;;26.00;10.60;;;0.00;99.90;;;;;;4192477;28;20041;-82
2023/01/20 08:15:10;;;;;;;26.77;9.90;;;0.10;99.90;;;;;;4193909;28;20048;-80
2023/01/20 08:17:13;;;;;;;27.98;10.05;;;0.10;99.90;;;;;;4196561;28;20033;-79
2023/01/20 08:19:16;;;;;;;26.67;9.75;;;0.10;99.90;;;;;;4179537;28;20053;-79
2023/01/20 08:21:21;;;;;;;24.90;9.63;;;-0.90;99.90;;;;;;4192123;28;20442;-81
2023/01/20 08:23:24;;;;;;;34.53;11.90;;;-0.30;99.90;;;;;;4173706;28;20046;-81
2023/01/20 08:25:41;;;;;;;29.13;11.15;;;0.10;99.90;;;;;;4173917;28;20046;-81
2023/01/20 08:27:42;;;;;;;30.65;9.95;;;-0.20;99.90;;;;;;4191131;28;20049;-80
2023/01/20 08:29:44;;;;;;;27.67;10.85;;;0.00;99.90;;;;;;4174240;28;20049;-80
2023/01/20 08:31:48;;;;;;;27.20;10.68;;;0.00;99.90;;;;;;4174617;28;20176;-81
2023/01/20 08:33:53;;;;;;;28.02;10.57;;;0.30;99.90;;;;;;4192321;28;20114;-80
2023/01/20 08:36:03;;;;;;;29.80;12.25;;;0.20;99.90;;;;;;4189336;28;20049;-82
2023/01/20 08:38:05;;;;;;;35.45;12.23;;;0.30;99.90;;;;;;4190062;28;20084;-82
2023/01/20 08:40:08;;;;;;;30.73;12.25;;;1.20;99.90;;;;;;4208555;28;20048;-81
2023/01/20 08:42:10;;;;;;;33.00;12.27;;;0.10;99.90;;;;;;4207443;28;20037;-81
2023/01/20 08:44:13;;;;;;;28.52;11.20;;;1.90;99.90;;;;;;4207725;28;20040;-81
2023/01/20 08:46:21;;;;;;;27.15;10.18;;;0.60;99.90;;;;;;4207285;28;20055;-81
2023/01/20 08:48:23;;;;;;;28.10;11.63;;;2.00;99.90;;;;;;4195122;28;20044;-81
2023/01/20 08:50:24;;;;;;;26.75;10.35;;;0.10;99.90;;;;;;4201719;28;20032;-81
2023/01/20 08:52:27;;;;;;;29.67;10.85;;;0.20;99.90;;;;;;4208316;28;20155;-81
2023/01/20 08:54:33;;;;;;;31.73;11.05;;;-1.40;99.90;;;;;;4207677;28;20067;-81
2023/01/20 08:56:35;;;;;;;29.35;11.40;;;0.20;99.90;;;;;;4207139;28;20044;-81
2023/01/20 08:58:43;;;;;;;29.70;10.40;;;0.30;99.90;;;;;;4207966;28;20109;-81
2023/01/20 09:00:45;;;;;;;31.70;11.60;;;0.40;99.90;;;;;;4208524;28;20048;-82
2023/01/20 09:02:47;;;;;;;28.67;11.48;;;0.20;99.90;;;;;;4190498;28;20041;-82
2023/01/20 09:04:50;;;;;;;31.45;12.00;;;-0.40;99.90;;;;;;4209046;28;20044;-80
2023/01/20 09:06:55;;;;;;;30.98;12.38;;;0.30;99.90;;;;;;4208681;28;20056;-81
2023/01/20 09:08:59;;;;;;;30.27;11.35;;;1.50;99.90;;;;;;4207870;28;20127;-80
2023/01/20 09:11:03;;;;;;;28.92;11.85;;;0.40;99.90;;;;;;4187259;28;20107;-80
2023/01/20 09:13:05;;;;;;;34.05;11.98;;;0.30;99.90;;;;;;4208713;28;20082;-80
2023/01/20 09:15:13;;;;;;;27.75;11.15;;;0.40;99.90;;;;;;4174191;28;20045;-81
2023/01/20 09:17:15;;;;;;;34.28;13.38;;;0.30;99.90;;;;;;4192548;28;20044;-81
2023/01/20 09:19:17;;;;;;;29.30;11.05;;;1.30;99.90;;;;;;4192003;28;20105;-80
2023/01/20 09:21:19;;;;;;;29.67;10.50;;;1.70;99.90;;;;;;4192270;28;20048;-81
2023/01/20 09:23:20;;;;;;;35.97;13.20;;;0.40;99.90;;;;;;4175301;28;20057;-80
2023/01/20 09:25:34;;;;;;;30.92;12.23;;;1.70;99.90;;;;;;4190895;28;20053;-80
2023/01/20 09:27:47;;;;;;;30.45;10.40;;;0.40;99.90;;;;;;4194270;28;20041;-80
2023/01/20 09:29:51;;;;;;;34.22;13.13;;;0.40;99.90;;;;;;4190834;28;20037;-81
2023/01/20 09:32:00;;;;;;;35.60;12.75;;;0.40;99.90;;;;;;4173547;28;20046;-81
2023/01/20 09:34:01;;;;;;;30.58;11.48;;;-0.20;99.90;;;;;;4191132;28;20405;-81
2023/01/20 09:36:04;;;;;;;35.13;12.57;;;0.00;99.90;;;;;;4175215;28;20049;-81
2023/01/20 09:43:55;;;;;;;36.97;13.88;;;1.10;99.90;;;;;;4191408;28;20394;-81
2023/01/20 09:46:09;;;;;;;32.25;12.07;;;-0.30;99.90;;;;;;4191575;28;20061;-81
2023/01/20 09:53:34;;;;;;;36.58;13.75;;;2.70;99.90;;;;;;4193066;28;20110;-80
2023/01/20 09:55:46;;;;;;;30.73;11.75;;;0.60;99.90;;;;;;4173560;28;20050;-80
2023/01/20 09:58:11;;;;;;;31.10;13.10;;;0.80;99.90;;;;;;4198219;28;20056;-80
2023/01/20 10:00:20;;;;;;;31.80;11.55;;;0.60;99.90;;;;;;4160800;28;20107;-81
2023/01/20 10:02:32;;;;;;;32.28;11.38;;;0.50;99.90;;;;;;4182051;28;20071;-81
2023/01/20 10:04:58;;;;;;;35.85;12.82;;;0.70;99.90;;;;;;4181713;28;20120;-80
2023/01/20 10:07:13;;;;;;;29.75;12.55;;;0.80;99.90;;;;;;4203645;28;20048;-82
2023/01/20 10:09:46;;;;;;;34.35;12.32;;;0.10;99.90;;;;;;4193143;28;20045;-80
2023/01/20 10:11:49;;;;;;;34.03;12.18;;;0.80;99.90;;;;;;4191153;28;20073;-81
2023/01/20 10:14:14;;;;;;;33.05;12.30;;;0.60;99.90;;;;;;4175193;28;20077;-81
2023/01/20 10:16:28;;;;;;;30.60;11.48;;;-0.80;99.90;;;;;;4192063;28;20052;-81
2023/01/20 10:18:34;;;;;;;29.17;10.68;;;0.90;99.90;;;;;;4192793;28;20077;-81
2023/01/20 10:20:46;;;;;;;28.02;10.65;;;0.60;99.90;;;;;;4192481;28;20045;-80
2023/01/20 10:23:09;;;;;;;32.38;11.70;;;1.20;99.90;;;;;;4191657;28;20202;-81
2023/01/20 10:25:21;;;;;;;27.48;11.38;;;0.60;99.90;;;;;;4175409;28;20054;-82
2023/01/20 10:27:33;;;;;;;31.83;11.02;;;1.10;99.90;;;;;;4176463;28;20045;-81
2023/01/20 10:29:37;;;;;;;30.13;11.85;;;0.70;99.90;;;;;;4193023;28;20512;-82
2023/01/20 10:31:52;;;;;;;31.65;11.55;;;0.70;99.90;;;;;;4175614;28;20088;-82
2023/01/20 10:34:08;;;;;;;35.95;12.93;;;0.60;99.90;;;;;;4175722;28;20045;-82
2023/01/20 10:36:19;;;;;;;35.17;12.23;;;0.70;99.90;;;;;;4193210;28;20106;-81
2023/01/20 10:38:25;;;;;;;31.90;12.77;;;0.70;99.90;;;;;;4175301;28;20148;-81
2023/01/20 10:40:42;;;;;;;32.65;12.32;;;0.80;99.90;;;;;;4174791;28;20113;-82
2023/01/20 10:42:52;;;;;;;31.83;12.32;;;0.90;99.90;;;;;;4193090;28;20045;-82
2023/01/20 10:44:54;;;;;;;35.65;12.57;;;1.00;99.90;;;;;;4175626;28;20049;-82
2023/01/20 10:47:22;;;;;;;32.38;12.15;;;0.90;99.90;;;;;;4192327;28;20037;-82
2023/01/20 10:49:51;;;;;;;32.30;13.07;;;1.60;99.90;;;;;;4193849;28;20033;-81
2023/01/20 10:52:17;;;;;;;31.27;11.85;;;1.40;99.90;;;;;;4192817;28;20052;-82
2023/01/20 10:54:30;;;;;;;33.35;12.07;;;0.80;99.90;;;;;;4192732;28;20407;-82
2023/01/20 10:56:52;;;;;;;30.60;10.20;;;0.80;99.90;;;;;;4195455;28;20114;-81
2023/01/20 10:58:56;;;;;;;35.60;13.25;;;0.70;99.90;;;;;;4180081;28;20095;-82
2023/01/20 11:01:01;;;;;;;36.33;13.35;;;0.80;99.90;;;;;;4209861;28;20041;-82
2023/01/20 11:03:05;;;;;;;37.15;12.00;;;0.80;99.90;;;;;;4208075;28;20074;-81
2023/01/20 11:05:24;;;;;;;30.17;12.77;;;0.90;99.90;;;;;;4207849;28;20040;-81
2023/01/20 11:07:26;;;;;;;;;;;0.80;99.90;;;;;;4208568;28;20044;-82